x

Santa Maria - 21nm Nw Of Point Arguello, Ca (46011) Wave Buoy

11:50am - Mon 15th Oct 2018 All times are PDT. -7 hours from GMT.

  • Sig Wave height 4.3ft
  • Swell Direction
  • Peak Period 9s
  • Average Period 9s
  • Wind
    9mph, 11mph gusts
  • Sea Temp 65°f
  • Air Temp 62°f
  • Sea Pressure 1020.2mb
  • Santa Maria - 21nm Nw Of Point Arguello, Ca
  • Santa Maria - 21nm Nw Of Point Arguello, Ca

More Historic Weather Station data

Upgrade to MSW Pro to gain access to the past 30 days of data for over 8000 Wavebouys and Weather Stations around the globe.

Join

Comparision Forecast

View Surf forecast
   
Mon 10/15 11:50am 4.5ft 9s 9s 9 11 mph 1020.2mb 65f 62f
10:50am 4.5ft 9s 8s 4 7 mph 1019.7mb 65f 61f
9:50am 5ft 10s 9s 7 9 mph 1019.5mb 64f 61f
8:50am 5ft 16s 9s 7 9 mph 1019.2mb 64f 61f
7:50am 4.5ft 16s 9s 7 9 mph 1018.4mb 64f 60f
6:50am 5ft 16s 9s 9 11 mph 1018mb 64f 60f
5:50am 5.5ft 10s 9s 9 13 mph 1017.5mb 64f 60f
4:50am 5.5ft 10s 9s 7 9 mph 1017.1mb 64f 60f
3:50am 5ft 10s 9s 7 9 mph 1016.8mb 64f 60f
2:50am 5.5ft 16s 10s 9 11 mph 1017.1mb 64f 60f
12:50am 5ft 16s 9s 7 9 mph 1016.9mb 65f 61f
Sun 10/14 10:50pm 5ft 16s 9s 7 9 mph 1016.3mb 65f 61f
9:50pm 4.5ft 16s 8s 7 11 mph 1015.8mb 65f 61f
6:50pm 5ft 17s 8s 9 11 mph 1014.4mb 65f 60f
5:50pm 5ft 16s 8s 9 11 mph 1014mb 66f 61f
4:50pm 5ft 16s 9s 9 11 mph 1014mb 66f 60f
3:50pm 4.5ft 17s 9s 9 11 mph 1014.2mb 66f 60f
2:50pm 5ft 16s 9s 9 11 mph 1014.3mb 66f 61f
1:50pm 5ft 17s 9s 7 11 mph 1014.6mb 66f 61f
12:50pm 5ft 17s 9s 9 11 mph 1015mb 66f 61f
11:50am 4.5ft 17s 8s 7 9 mph 1015.1mb 65f 61f
10:50am 5ft 17s 8s 2 7 mph 1015.1mb 65f 61f
9:50am 5ft 17s 8s 2 2 mph 1014.9mb 65f 61f
8:50am 5ft 17s 8s 4 7 mph 1014.5mb 65f 60f
7:50am 5.5ft 16s 9s 2 4 mph 1013.9mb 64f 60f
5:50am 5ft 10s 8s 7 9 mph 1013.1mb 64f 60f
4:50am 5ft 17s 8s 7 9 mph 1012.7mb 64f 61f
1:50am 5ft 17s 8s 2 7 mph 1012.7mb 63f 61f
12:50am 4.5ft 17s 8s 4 4 mph 1012.7mb 63f 61f
Sat 10/13 11:50pm 5ft 17s 9s 4 7 mph 1012.4mb 63f 61f
10:50pm 4.5ft 17s 8s 7 9 mph 1012.5mb 64f 62f
9:50pm 4.5ft 16s 8s 7 9 mph 1012.1mb 64f 62f
8:50pm 4.5ft 17s 9s 9 11 mph 1011.8mb 64f 63f
7:50pm 4.5ft 19s 8s 9 11 mph 1011.3mb 65f 62f
6:50pm 4.5ft 16s 9s 7 9 mph 1010.8mb 65f 62f
5:50pm 4.5ft 17s 9s 9 11 mph 1010.7mb 65f 63f
4:50pm 4.5ft 16s 8s 7 9 mph 1010.7mb 65f 64f
2:50pm 5ft 16s 9s 7 9 mph 1011.1mb 65f 64f
12:50pm 4.5ft 16s 8s 7 9 mph 1012.1mb 65f 64f
11:50am 5ft 19s 7s 9 9 mph 1012.5mb 64f 64f
10:50am 4.5ft 16s 7s 11 13 mph 1012.5mb 64f 64f
9:50am 4.5ft 16s 7s 11 16 mph 1012.2mb 64f 64f
7:50am 4.5ft 16s 7s 11 13 mph 1011.5mb 64f 64f
6:50am 4.5ft 15s 6s 13 16 mph 1010.9mb 64f 64f
5:50am 4.5ft 19s 6s 16 20 mph 1010.2mb 64f 65f
4:50am 5ft 17s 6s 11 16 mph 1009.6mb 64f 64f
3:50am 5.5ft 16s 6s 13 18 mph 1009.3mb 64f 64f
2:50am 5ft 16s 6s 13 18 mph 1009.7mb 64f 65f
1:50am 5ft 9s 7s 16 20 mph 1009.9mb 64f 65f
Fri 10/12 11:50pm 5ft 9s 7s 9 11 mph 1008.5mb 64f 64f
10:50pm 5ft 17s 6s 11 13 mph 1008.4mb 64f 64f
9:50pm 5.5ft 16s 6s 11 13 mph 1008.6mb 64f 64f
7:50pm 5ft 16s 6s 16 18 mph 1008mb 65f 64f
5:50pm 5ft 9s 6s 18 20 mph 1007.3mb 65f 65f
4:50pm 5ft 12s 7s 18 22 mph 1007.2mb 65f 65f
3:50pm 5ft 13s 7s 18 20 mph 1007.3mb 65f 65f
2:50pm 4.5ft 9s 7s 16 18 mph 1007.5mb 65f 66f
1:50pm 5ft 16s 8s 13 16 mph 1008.4mb 65f 65f
12:50pm 5ft 10s 8s 11 13 mph 1009.2mb 65f 66f
11:50am 4.5ft 9s 8s 9 11 mph 1010.1mb 65f 65f
10:50am 5.5ft 9s 9s 7 9 mph 1010.5mb 65f 64f
9:50am 5ft 14s 8s 7 9 mph 1010.8mb 65f 63f
8:50am 5ft 10s 8s 7 7 mph 1010.8mb 65f 62f
7:50am 5ft 10s 7s 9 13 mph 1010.4mb 65f 62f
6:50am 5ft 13s 7s 13 18 mph 1010.1mb 65f 63f
5:50am 5.5ft 10s 7s 13 18 mph 1010mb 65f 63f
4:50am 5.5ft 9s 7s 11 13 mph 1010mb 65f 62f
3:50am 5.5ft 10s 8s 13 16 mph 1009.6mb 65f 62f
2:50am 6ft 10s 8s 13 16 mph 1010.2mb 65f 62f
1:50am 6ft 9s 9s 9 11 mph 1010.5mb 65f 62f
12:50am 6ft 11s 8s 9 11 mph 1010.7mb 65f 62f
Thu 10/11 10:50pm 5ft 9s 9s 4 7 mph 1010.9mb 65f 63f
9:50pm 5ft 9s 8s 4 7 mph 1010.8mb 65f 63f
8:50pm 5ft 9s 8s  -  2 mph 1010.7mb 65f 62f